createdAt,value
2019-03-30T00:03:30.630Z,99.90
2019-03-30T00:06:06.794Z,99.90
2019-03-30T00:09:26.609Z,99.90
2019-03-30T00:12:51.264Z,99.90
2019-03-30T00:15:46.217Z,99.90
2019-03-30T00:19:35.051Z,99.90
2019-03-30T00:22:39.170Z,99.90
2019-03-30T00:25:24.401Z,99.90
2019-03-30T00:28:21.207Z,99.90
2019-03-30T00:32:23.421Z,99.90
2019-03-30T00:36:04.698Z,99.90
2019-03-30T00:38:36.239Z,99.90
2019-03-30T00:41:18.771Z,99.90
2019-03-30T00:44:03.171Z,99.90
2019-03-30T00:47:01.605Z,99.90
2019-03-30T00:49:48.967Z,99.90
2019-03-30T00:52:20.089Z,99.90
2019-03-30T00:55:01.110Z,99.90
2019-03-30T00:57:42.590Z,99.90
2019-03-30T01:00:18.568Z,99.90
2019-03-30T01:03:16.089Z,99.90
2019-03-30T01:05:51.096Z,99.90
2019-03-30T01:08:29.447Z,99.90
2019-03-30T01:11:09.684Z,99.90
2019-03-30T01:13:49.369Z,99.90
2019-03-30T01:16:23.530Z,99.90
2019-03-30T01:20:03.102Z,99.90
2019-03-30T01:23:17.731Z,99.90
2019-03-30T01:26:09.560Z,99.90
2019-03-30T01:28:43.812Z,99.90
2019-03-30T01:31:59.443Z,99.90
2019-03-30T01:34:47.740Z,99.90
2019-03-30T01:37:18.192Z,99.90
2019-03-30T01:39:48.875Z,99.90
2019-03-30T01:42:21.419Z,99.90
2019-03-30T01:44:52.969Z,99.90
2019-03-30T01:47:32.160Z,99.90
2019-03-30T01:50:20.385Z,99.90
2019-03-30T01:53:07.683Z,99.90
2019-03-30T01:55:43.143Z,99.90
2019-03-30T01:58:13.974Z,99.90
2019-03-30T02:00:52.742Z,99.90
2019-03-30T02:03:29.640Z,99.90
2019-03-30T02:06:13.324Z,99.90
2019-03-30T02:08:47.128Z,99.90
2019-03-30T02:11:18.064Z,99.90
2019-03-30T02:13:56.430Z,99.90
2019-03-30T02:16:29.845Z,99.90
2019-03-30T02:19:13.127Z,99.90
2019-03-30T02:21:55.905Z,99.90
2019-03-30T02:24:39.593Z,99.90
2019-03-30T02:27:24.965Z,99.90
2019-03-30T02:30:30.234Z,99.90
2019-03-30T02:33:15.970Z,99.90
2019-03-30T02:35:48.018Z,99.90
2019-03-30T02:38:21.104Z,99.90
2019-03-30T02:40:55.004Z,99.90
2019-03-30T02:43:25.904Z,99.90
2019-03-30T02:45:56.529Z,99.90
2019-03-30T02:48:31.018Z,99.90
2019-03-30T02:51:01.977Z,99.90
2019-03-30T02:53:33.605Z,99.90
2019-03-30T02:56:03.997Z,99.90
2019-03-30T02:58:36.493Z,99.90
2019-03-30T03:01:30.788Z,99.90
2019-03-30T03:04:27.304Z,99.90
2019-03-30T03:07:02.214Z,99.90
2019-03-30T03:09:35.155Z,99.90
2019-03-30T03:12:06.022Z,99.90
2019-03-30T03:14:36.469Z,99.90
2019-03-30T03:17:10.849Z,99.90
2019-03-30T03:19:47.816Z,99.90
2019-03-30T03:22:21.292Z,99.90
2019-03-30T03:25:17.434Z,99.90
2019-03-30T03:28:26.042Z,99.90
2019-03-30T03:34:48.133Z,99.90
2019-03-30T03:37:46.619Z,99.90
2019-03-30T03:40:22.822Z,99.90
2019-03-30T03:42:56.942Z,99.90
2019-03-30T03:45:27.390Z,99.90
2019-03-30T03:47:57.822Z,99.90
2019-03-30T03:50:49.904Z,99.90
2019-03-30T03:53:20.955Z,99.90
2019-03-30T03:56:00.086Z,99.90
2019-03-30T03:58:33.964Z,99.90
2019-03-30T04:01:07.756Z,99.90
2019-03-30T04:03:42.787Z,99.90
2019-03-30T04:06:13.821Z,99.90
2019-03-30T04:08:46.939Z,99.90
2019-03-30T04:11:20.590Z,99.90
2019-03-30T04:13:58.563Z,99.90
2019-03-30T04:16:31.665Z,99.90
2019-03-30T04:19:04.276Z,99.90
2019-03-30T04:21:44.386Z,99.90
2019-03-30T04:24:09.556Z,99.90
2019-03-30T04:26:46.470Z,99.90
2019-03-30T04:29:16.829Z,99.90
2019-03-30T04:31:47.190Z,99.90
2019-03-30T04:34:17.783Z,99.90
2019-03-30T04:36:52.305Z,99.90
2019-03-30T04:39:22.495Z,99.90
2019-03-30T04:41:52.834Z,99.90
2019-03-30T04:44:50.946Z,99.90
2019-03-30T04:47:38.085Z,99.90
2019-03-30T04:50:09.005Z,99.90
2019-03-30T04:52:40.953Z,99.90
2019-03-30T04:55:11.780Z,99.90
2019-03-30T04:57:42.246Z,99.90
2019-03-30T05:00:12.681Z,99.90
2019-03-30T05:02:50.524Z,99.90
2019-03-30T05:05:29.735Z,99.90
2019-03-30T05:08:18.034Z,99.90
2019-03-30T05:10:45.970Z,99.90
2019-03-30T05:13:16.878Z,99.90
2019-03-30T05:15:47.313Z,99.90
2019-03-30T05:18:17.803Z,99.90
2019-03-30T05:20:49.843Z,99.90
2019-03-30T05:23:20.369Z,99.90
2019-03-30T05:25:53.605Z,99.90
2019-03-30T05:28:23.802Z,99.90
2019-03-30T05:30:54.202Z,99.90
2019-03-30T05:33:24.884Z,99.90
2019-03-30T05:35:55.010Z,99.90
2019-03-30T05:38:25.390Z,99.90
2019-03-30T05:40:56.269Z,99.90
2019-03-30T05:43:29.487Z,99.90
2019-03-30T05:46:00.710Z,99.90
2019-03-30T05:48:31.332Z,99.90
2019-03-30T05:51:02.099Z,99.90
2019-03-30T05:53:32.296Z,99.90
2019-03-30T05:56:05.569Z,99.90
2019-03-30T05:58:35.772Z,99.90
2019-03-30T06:01:06.256Z,99.90
2019-03-30T06:03:36.616Z,99.90
2019-03-30T06:06:06.927Z,99.90
2019-03-30T06:08:37.426Z,99.90
2019-03-30T06:11:10.581Z,99.90
2019-03-30T06:13:41.542Z,99.90
2019-03-30T06:16:12.111Z,99.90
2019-03-30T06:18:42.358Z,99.90
2019-03-30T06:21:12.761Z,99.90
2019-03-30T06:23:43.271Z,99.90
2019-03-30T06:26:13.916Z,99.90
2019-03-30T06:28:44.117Z,99.90
2019-03-30T06:31:14.563Z,99.90
2019-03-30T06:33:46.182Z,99.90
2019-03-30T06:36:16.552Z,99.90
2019-03-30T06:38:47.900Z,99.90
2019-03-30T06:41:19.105Z,99.90
2019-03-30T06:43:51.118Z,99.90
2019-03-30T06:46:21.404Z,99.90
2019-03-30T06:48:51.588Z,99.90
2019-03-30T06:51:23.273Z,99.90
2019-03-30T06:53:55.371Z,99.90
2019-03-30T06:56:26.275Z,99.90
2019-03-30T06:58:57.160Z,99.90
2019-03-30T07:01:28.133Z,99.90
2019-03-30T07:03:58.288Z,99.90
2019-03-30T07:06:30.055Z,99.90
2019-03-30T07:09:02.498Z,99.90
2019-03-30T07:11:35.863Z,99.90
2019-03-30T07:14:09.127Z,99.90
2019-03-30T07:16:41.614Z,99.90
2019-03-30T07:19:13.212Z,99.90
2019-03-30T07:21:43.981Z,99.90
2019-03-30T07:24:14.540Z,99.90
2019-03-30T07:26:46.142Z,99.90
2019-03-30T07:29:19.071Z,99.90
2019-03-30T07:31:49.492Z,99.90
2019-03-30T07:34:20.112Z,99.90
2019-03-30T07:36:55.185Z,99.90
2019-03-30T07:39:26.002Z,99.90
2019-03-30T07:41:56.234Z,99.90
2019-03-30T07:44:27.108Z,99.90
2019-03-30T07:46:59.033Z,99.90
2019-03-30T07:49:31.030Z,99.90
2019-03-30T07:52:01.986Z,99.90
2019-03-30T07:54:39.091Z,99.90
2019-03-30T07:57:16.843Z,99.90
2019-03-30T07:59:42.372Z,99.90
2019-03-30T08:02:22.675Z,99.90
2019-03-30T08:05:05.175Z,99.90
2019-03-30T08:07:35.324Z,99.90
2019-03-30T08:10:07.216Z,99.90
2019-03-30T08:12:41.167Z,99.90
2019-03-30T08:15:14.310Z,99.90
2019-03-30T08:17:51.929Z,99.90
2019-03-30T08:20:38.622Z,99.90
2019-03-30T08:23:16.104Z,99.90
2019-03-30T08:25:49.168Z,99.90
2019-03-30T08:28:24.194Z,99.90
2019-03-30T08:30:55.167Z,99.90
2019-03-30T08:33:31.433Z,99.90
2019-03-30T08:36:02.200Z,99.90
2019-03-30T08:38:32.494Z,99.90
2019-03-30T08:41:03.181Z,99.90
2019-03-30T08:43:36.829Z,99.90
2019-03-30T08:46:12.421Z,97.50
2019-03-30T08:48:44.396Z,92.10
2019-03-30T08:51:20.802Z,74.80
2019-03-30T08:53:54.779Z,67.70
2019-03-30T08:56:31.395Z,56.50
2019-03-30T08:59:02.105Z,52.10
2019-03-30T09:01:32.399Z,51.10
2019-03-30T09:04:02.997Z,49.60
2019-03-30T09:06:33.621Z,48.90
2019-03-30T09:09:05.879Z,46.70
2019-03-30T09:11:36.270Z,45.40
2019-03-30T09:14:07.346Z,46.30
2019-03-30T09:16:38.191Z,46.40
2019-03-30T09:19:08.906Z,46.40
2019-03-30T09:21:40.230Z,45.20
2019-03-30T09:24:15.513Z,43.40
2019-03-30T09:26:46.421Z,44.20
2019-03-30T09:29:20.282Z,43.00
2019-03-30T09:31:50.480Z,42.20
2019-03-30T09:34:22.603Z,40.50
2019-03-30T09:36:53.478Z,40.40
2019-03-30T09:39:32.443Z,40.70
2019-03-30T09:42:05.954Z,40.80
2019-03-30T09:44:37.171Z,40.40
2019-03-30T09:47:19.064Z,40.20
2019-03-30T09:50:02.911Z,40.20
2019-03-30T09:52:35.266Z,40.00
2019-03-30T09:55:09.007Z,38.60
2019-03-30T09:57:39.385Z,37.40
2019-03-30T10:00:10.076Z,36.40
2019-03-30T10:02:43.983Z,36.20
2019-03-30T10:05:16.304Z,36.40
2019-03-30T10:07:47.704Z,35.10
2019-03-30T10:10:22.234Z,33.90
2019-03-30T10:12:52.784Z,33.60
2019-03-30T10:15:23.562Z,33.80
2019-03-30T10:17:55.203Z,33.80
2019-03-30T10:20:29.166Z,33.60
2019-03-30T10:23:00.092Z,32.90
2019-03-30T10:25:43.753Z,32.30
2019-03-30T10:28:26.051Z,32.30
2019-03-30T10:31:01.822Z,32.80
2019-03-30T10:33:40.739Z,33.50
2019-03-30T10:36:11.521Z,32.30
2019-03-30T10:38:42.041Z,32.80
2019-03-30T10:41:17.608Z,33.00
2019-03-30T10:43:53.163Z,32.00
2019-03-30T10:46:23.716Z,32.30
2019-03-30T10:49:03.964Z,32.40
2019-03-30T10:51:39.252Z,33.30
2019-03-30T10:54:11.374Z,33.30
2019-03-30T10:56:42.490Z,34.10
2019-03-30T10:59:13.452Z,35.00
2019-03-30T11:01:47.134Z,35.80
2019-03-30T11:04:18.327Z,37.10
2019-03-30T11:06:49.576Z,37.10
2019-03-30T11:09:23.324Z,35.50
2019-03-30T11:11:57.040Z,35.40
2019-03-30T11:14:27.803Z,35.30
2019-03-30T11:16:58.671Z,35.30
2019-03-30T11:19:29.345Z,35.30
2019-03-30T11:22:02.895Z,35.00
2019-03-30T11:24:34.562Z,34.50
2019-03-30T11:27:05.198Z,34.40
2019-03-30T11:29:37.281Z,34.40
2019-03-30T11:32:09.067Z,34.60
2019-03-30T11:34:45.254Z,33.90
2019-03-30T11:37:25.079Z,33.50
2019-03-30T11:39:55.690Z,33.50
2019-03-30T11:42:27.047Z,33.60
2019-03-30T11:44:58.981Z,33.30
2019-03-30T11:47:29.235Z,33.20
2019-03-30T11:50:00.019Z,32.60
2019-03-30T11:52:33.952Z,31.90
2019-03-30T11:55:22.014Z,31.30
2019-03-30T11:58:12.001Z,30.80
2019-03-30T12:00:43.097Z,31.20
2019-03-30T12:03:16.221Z,32.00
2019-03-30T12:05:49.700Z,31.70
2019-03-30T12:08:20.885Z,30.70
2019-03-30T12:10:51.628Z,31.60
2019-03-30T12:13:22.678Z,31.70
2019-03-30T12:15:57.554Z,32.00
2019-03-30T12:18:33.994Z,32.60
2019-03-30T12:21:04.528Z,31.90
2019-03-30T12:23:35.027Z,31.20
2019-03-30T12:26:08.552Z,31.60
2019-03-30T12:28:52.244Z,31.70
2019-03-30T12:31:39.307Z,31.10
2019-03-30T12:34:13.333Z,30.90
2019-03-30T12:36:55.947Z,30.70
2019-03-30T12:39:29.933Z,31.00
2019-03-30T12:42:02.103Z,31.90
2019-03-30T12:44:35.787Z,31.60
2019-03-30T12:47:10.583Z,31.00
2019-03-30T12:49:47.445Z,31.60
2019-03-30T12:52:26.586Z,31.70
2019-03-30T12:55:07.115Z,31.80
2019-03-30T12:57:38.935Z,31.90
2019-03-30T13:00:10.307Z,31.80
2019-03-30T13:02:44.261Z,31.80
2019-03-30T13:05:24.773Z,31.20
2019-03-30T13:07:59.804Z,30.90
2019-03-30T13:10:30.310Z,30.60
2019-03-30T13:13:02.850Z,30.80
2019-03-30T13:15:41.640Z,31.00
2019-03-30T13:18:35.675Z,31.40
2019-03-30T13:21:06.311Z,30.40
2019-03-30T13:23:39.955Z,28.90
2019-03-30T13:26:26.646Z,28.80
2019-03-30T13:28:52.607Z,29.00
2019-03-30T13:31:24.855Z,29.50
2019-03-30T13:33:57.825Z,30.00
2019-03-30T13:36:41.404Z,30.40
2019-03-30T13:39:17.684Z,30.60
2019-03-30T13:41:48.153Z,31.10
2019-03-30T13:44:18.884Z,31.30
2019-03-30T13:46:51.394Z,30.90
2019-03-30T13:49:23.870Z,30.80
2019-03-30T13:51:56.219Z,30.60
2019-03-30T13:54:33.641Z,30.70
2019-03-30T13:57:10.716Z,30.60
2019-03-30T13:59:49.288Z,30.80
2019-03-30T14:02:20.418Z,31.10
2019-03-30T14:04:53.892Z,30.90
2019-03-30T14:07:24.337Z,31.00
2019-03-30T14:09:57.976Z,32.70
2019-03-30T14:12:28.456Z,34.20
2019-03-30T14:15:01.746Z,35.90
2019-03-30T14:17:41.101Z,36.60
2019-03-30T14:20:14.634Z,36.80
2019-03-30T14:22:57.265Z,36.90
2019-03-30T14:25:27.297Z,37.40
2019-03-30T14:27:59.413Z,37.40
2019-03-30T14:30:30.982Z,37.50
2019-03-30T14:33:02.603Z,37.50
2019-03-30T14:35:34.603Z,37.50
2019-03-30T14:38:16.089Z,37.70
2019-03-30T14:40:58.902Z,37.70
2019-03-30T14:43:29.887Z,38.20
2019-03-30T14:46:04.888Z,38.20
2019-03-30T14:48:51.209Z,38.70
2019-03-30T14:51:31.241Z,38.70
2019-03-30T14:54:06.637Z,38.60
2019-03-30T14:56:45.696Z,39.00
2019-03-30T14:59:14.565Z,38.60
2019-03-30T15:01:47.407Z,39.80
2019-03-30T15:04:23.809Z,40.40
2019-03-30T15:07:04.220Z,39.60
2019-03-30T15:09:38.198Z,39.50
2019-03-30T15:12:09.266Z,40.00
2019-03-30T15:14:52.491Z,40.80
2019-03-30T15:17:40.289Z,41.00
2019-03-30T15:20:26.036Z,41.00
2019-03-30T15:23:01.290Z,41.20
2019-03-30T15:25:37.915Z,41.80
2019-03-30T15:28:14.445Z,41.40
2019-03-30T15:30:51.324Z,41.40
2019-03-30T15:33:28.247Z,41.50
2019-03-30T15:36:01.772Z,41.70
2019-03-30T15:38:41.875Z,41.90
2019-03-30T15:41:16.640Z,41.70
2019-03-30T15:43:51.985Z,41.50
2019-03-30T15:46:23.730Z,41.70
2019-03-30T15:48:59.461Z,41.40
2019-03-30T15:51:31.451Z,41.30
2019-03-30T15:54:07.156Z,41.50
2019-03-30T15:56:37.903Z,41.30
2019-03-30T15:59:19.279Z,41.20
2019-03-30T16:01:50.420Z,41.40
2019-03-30T16:04:20.790Z,41.30
2019-03-30T16:06:52.097Z,40.70
2019-03-30T16:09:23.438Z,40.90
2019-03-30T16:12:01.145Z,40.60
2019-03-30T16:14:32.020Z,40.70
2019-03-30T16:17:05.615Z,40.50
2019-03-30T16:19:42.604Z,40.10
2019-03-30T16:22:13.233Z,40.20
2019-03-30T16:24:54.016Z,40.20
2019-03-30T16:27:29.093Z,40.00
2019-03-30T16:30:04.615Z,40.60
2019-03-30T16:32:39.471Z,41.00
2019-03-30T16:35:20.734Z,41.20
2019-03-30T16:37:54.342Z,41.30
2019-03-30T16:40:26.014Z,41.20
2019-03-30T16:42:56.630Z,41.70
2019-03-30T16:45:31.078Z,41.80
2019-03-30T16:48:01.735Z,42.30
2019-03-30T16:50:38.530Z,42.40
2019-03-30T16:53:09.359Z,42.40
2019-03-30T16:55:43.286Z,42.40
2019-03-30T16:58:15.311Z,43.00
2019-03-30T17:00:56.154Z,43.00
2019-03-30T17:03:31.553Z,43.10
2019-03-30T17:06:03.674Z,43.20
2019-03-30T17:08:40.256Z,43.50
2019-03-30T17:11:15.438Z,43.40
2019-03-30T17:13:59.142Z,43.70
2019-03-30T17:16:30.733Z,43.70
2019-03-30T17:19:04.370Z,43.20
2019-03-30T17:21:35.429Z,43.70
2019-03-30T17:24:24.731Z,43.60
2019-03-30T17:26:59.165Z,43.80
2019-03-30T17:29:36.183Z,43.80
2019-03-30T17:32:07.127Z,43.90
2019-03-30T17:34:58.031Z,43.90
2019-03-30T17:38:02.810Z,44.00
2019-03-30T17:40:39.242Z,44.20
2019-03-30T17:43:12.176Z,44.40
2019-03-30T17:45:47.005Z,44.60
2019-03-30T17:48:28.357Z,44.70
2019-03-30T17:51:07.553Z,44.90
2019-03-30T17:53:45.883Z,45.00
2019-03-30T17:56:18.311Z,45.20
2019-03-30T17:58:59.466Z,45.80
2019-03-30T18:01:32.230Z,45.60
2019-03-30T18:04:13.082Z,45.90
2019-03-30T18:06:44.224Z,46.20
2019-03-30T18:09:18.054Z,46.60
2019-03-30T18:12:07.498Z,46.70
2019-03-30T18:14:38.933Z,46.90
2019-03-30T18:17:16.900Z,46.70
2019-03-30T18:19:54.748Z,46.80
2019-03-30T18:22:32.085Z,46.90
2019-03-30T18:25:04.179Z,47.30
2019-03-30T18:27:41.467Z,47.20
2019-03-30T18:30:23.609Z,46.90
2019-03-30T18:33:02.249Z,47.40
2019-03-30T18:35:45.076Z,47.50
2019-03-30T18:38:24.207Z,47.60
2019-03-30T18:40:55.460Z,47.70
2019-03-30T18:43:26.662Z,47.80
2019-03-30T18:46:09.495Z,47.90
2019-03-30T18:48:45.532Z,48.30
2019-03-30T18:51:19.450Z,48.80
2019-03-30T18:53:52.266Z,48.90
2019-03-30T18:56:28.111Z,48.90
2019-03-30T18:59:01.277Z,49.20
2019-03-30T19:01:50.200Z,49.70
2019-03-30T19:04:49.845Z,50.10
2019-03-30T19:07:28.016Z,50.80
2019-03-30T19:10:21.510Z,50.80
2019-03-30T19:12:55.817Z,50.90
2019-03-30T19:15:42.678Z,51.70
2019-03-30T19:18:18.775Z,51.70
2019-03-30T19:20:56.377Z,51.80
2019-03-30T19:23:33.062Z,52.10
2019-03-30T19:26:17.093Z,52.20
2019-03-30T19:29:08.616Z,52.00
2019-03-30T19:31:41.920Z,52.00
2019-03-30T19:34:28.084Z,52.50
2019-03-30T19:37:08.796Z,52.80
2019-03-30T19:39:40.370Z,52.60
2019-03-30T19:42:28.500Z,53.20
2019-03-30T19:45:02.458Z,54.30
2019-03-30T19:47:37.552Z,53.70
2019-03-30T19:50:12.367Z,54.00
2019-03-30T19:52:45.069Z,55.00
2019-03-30T19:55:16.421Z,55.10
2019-03-30T19:57:48.209Z,55.10
2019-03-30T20:00:30.059Z,57.30
2019-03-30T20:03:08.190Z,57.60
2019-03-30T20:05:44.704Z,58.70
2019-03-30T20:08:22.918Z,59.40
2019-03-30T20:10:55.621Z,59.40
2019-03-30T20:13:42.438Z,59.00
2019-03-30T20:16:14.368Z,59.40
2019-03-30T20:19:12.128Z,61.00
2019-03-30T20:21:57.158Z,63.10
2019-03-30T20:24:25.684Z,63.60
2019-03-30T20:27:02.738Z,64.20
2019-03-30T20:29:44.559Z,65.80
2019-03-30T20:32:35.750Z,65.20
2019-03-30T20:35:24.719Z,66.20
2019-03-30T20:38:34.949Z,67.90
2019-03-30T20:41:19.200Z,75.30
2019-03-30T20:44:18.642Z,74.30
2019-03-30T20:46:51.774Z,74.00
2019-03-30T20:49:35.494Z,73.40
2019-03-30T20:52:28.736Z,73.10
2019-03-30T20:55:06.884Z,72.80
2019-03-30T20:57:47.981Z,74.20
2019-03-30T21:00:42.414Z,74.20
2019-03-30T21:03:12.379Z,74.50
2019-03-30T21:06:12.169Z,74.40
2019-03-30T21:09:09.712Z,75.30
2019-03-30T21:11:59.861Z,78.00
2019-03-30T21:14:56.129Z,80.80
2019-03-30T21:17:35.476Z,82.50
2019-03-30T21:20:09.448Z,84.40
2019-03-30T21:23:05.517Z,85.10
2019-03-30T21:26:01.375Z,83.90
2019-03-30T21:28:53.516Z,86.50
2019-03-30T21:31:42.113Z,87.20
2019-03-30T21:34:42.208Z,87.40
2019-03-30T21:37:30.789Z,87.70
2019-03-30T21:40:12.368Z,86.00
2019-03-30T21:42:43.398Z,86.90
2019-03-30T21:45:30.532Z,90.30
2019-03-30T21:48:07.888Z,91.30
2019-03-30T21:50:39.226Z,90.90
2019-03-30T21:53:09.948Z,92.00
2019-03-30T21:55:49.587Z,92.00
2019-03-30T21:58:31.450Z,92.10
2019-03-30T22:01:12.503Z,93.00
2019-03-30T22:03:56.051Z,92.90
2019-03-30T22:06:51.889Z,94.10
2019-03-30T22:09:29.571Z,95.30
2019-03-30T22:12:20.108Z,94.80
2019-03-30T22:15:02.558Z,94.60
2019-03-30T22:17:54.726Z,92.70
2019-03-30T22:20:29.081Z,93.40
2019-03-30T22:23:00.452Z,93.00
2019-03-30T22:25:36.967Z,93.30
2019-03-30T22:28:23.092Z,96.20
2019-03-30T22:31:15.144Z,95.20
2019-03-30T22:33:54.911Z,96.40
2019-03-30T22:36:28.625Z,95.70
2019-03-30T22:39:01.301Z,97.60
2019-03-30T22:41:44.171Z,99.10
2019-03-30T22:44:23.962Z,99.30
2019-03-30T22:46:58.824Z,99.90
2019-03-30T22:49:34.051Z,99.80
2019-03-30T22:52:06.667Z,99.90
2019-03-30T22:54:38.576Z,99.90
2019-03-30T22:57:23.833Z,99.90
2019-03-30T23:00:03.632Z,99.90
2019-03-30T23:02:43.186Z,99.90
2019-03-30T23:05:49.364Z,99.90
2019-03-30T23:08:39.915Z,99.90
2019-03-30T23:11:23.460Z,99.90
2019-03-30T23:13:58.752Z,99.90
2019-03-30T23:16:35.097Z,99.90
2019-03-30T23:19:09.110Z,99.90
2019-03-30T23:21:49.127Z,99.90
2019-03-30T23:24:21.178Z,99.90
2019-03-30T23:26:57.440Z,99.90
2019-03-30T23:29:31.977Z,99.90
2019-03-30T23:32:01.639Z,99.90
2019-03-30T23:34:34.189Z,99.90
2019-03-30T23:37:07.123Z,99.90
2019-03-30T23:39:51.588Z,99.90
2019-03-30T23:42:56.766Z,99.90
2019-03-30T23:45:30.081Z,99.90
2019-03-30T23:48:05.459Z,99.90
2019-03-30T23:50:37.531Z,99.90
2019-03-30T23:53:18.727Z,99.90
2019-03-30T23:55:55.856Z,99.90
2019-03-30T23:58:26.833Z,99.90
